createdAt,value
2018-12-03T00:00:36.469Z,6.27
2018-12-03T00:01:36.449Z,6.33
2018-12-03T00:02:36.440Z,6.25
2018-12-03T00:03:36.432Z,6.15
2018-12-03T00:04:36.410Z,6.25
2018-12-03T00:05:36.392Z,6.18
2018-12-03T00:06:36.375Z,6.19
2018-12-03T00:07:36.367Z,6.27
2018-12-03T00:08:36.350Z,6.25
2018-12-03T00:09:36.333Z,6.18
2018-12-03T00:10:36.312Z,6.33
2018-12-03T00:11:36.309Z,6.37
2018-12-03T00:12:36.288Z,6.31
2018-12-03T00:13:36.267Z,6.34
2018-12-03T00:14:36.255Z,6.30
2018-12-03T00:15:36.238Z,6.31
2018-12-03T00:16:36.223Z,6.37
2018-12-03T00:17:36.208Z,6.28
2018-12-03T00:18:36.192Z,6.25
2018-12-03T00:19:36.180Z,6.37
2018-12-03T00:20:36.161Z,6.34
2018-12-03T00:21:36.148Z,6.37
2018-12-03T00:22:36.129Z,6.27
2018-12-03T00:23:36.117Z,6.34
2018-12-03T00:24:36.093Z,6.30
2018-12-03T00:25:36.086Z,6.46
2018-12-03T00:26:36.076Z,6.40
2018-12-03T00:27:36.056Z,6.40
2018-12-03T00:28:36.041Z,6.43
2018-12-03T00:29:36.022Z,6.40
2018-12-03T00:30:36.009Z,6.40
2018-12-03T00:31:35.997Z,6.40
2018-12-03T00:32:35.977Z,6.43
2018-12-03T00:33:35.965Z,6.41
2018-12-03T00:34:35.947Z,6.41
2018-12-03T00:35:35.931Z,6.38
2018-12-03T00:36:35.916Z,6.41
2018-12-03T00:37:35.903Z,6.46
2018-12-03T00:38:35.884Z,6.51
2018-12-03T00:39:35.867Z,6.44
2018-12-03T00:40:35.853Z,6.38
2018-12-03T00:41:35.840Z,6.49
2018-12-03T00:42:35.827Z,6.46
2018-12-03T00:43:35.812Z,6.46
2018-12-03T00:44:35.791Z,6.43
2018-12-03T00:45:35.781Z,6.44
2018-12-03T00:46:35.773Z,6.38
2018-12-03T00:47:35.747Z,6.40
2018-12-03T00:48:35.733Z,6.33
2018-12-03T00:49:35.716Z,6.28
2018-12-03T00:50:35.702Z,6.27
2018-12-03T00:51:35.684Z,6.30
2018-12-03T00:52:35.670Z,6.31
2018-12-03T00:53:35.655Z,6.15
2018-12-03T00:54:35.640Z,6.22
2018-12-03T00:55:35.624Z,6.19
2018-12-03T00:56:35.611Z,6.18
2018-12-03T00:57:35.593Z,6.12
2018-12-03T00:58:35.576Z,6.18
2018-12-03T00:59:35.566Z,6.17
2018-12-03T01:00:35.548Z,6.12
2018-12-03T01:01:35.527Z,6.09
2018-12-03T01:02:35.520Z,6.11
2018-12-03T01:03:35.498Z,6.04
2018-12-03T01:04:35.487Z,6.11
2018-12-03T01:05:35.470Z,6.14
2018-12-03T01:06:35.450Z,6.14
2018-12-03T01:07:35.438Z,6.09
2018-12-03T01:08:35.423Z,6.08
2018-12-03T01:09:35.411Z,6.18
2018-12-03T01:10:35.395Z,6.11
2018-12-03T01:11:35.381Z,6.25
2018-12-03T01:12:35.358Z,6.27
2018-12-03T01:13:35.344Z,6.18
2018-12-03T01:14:35.327Z,6.15
2018-12-03T01:15:35.310Z,6.28
2018-12-03T01:16:35.297Z,6.34
2018-12-03T01:17:35.281Z,6.25
2018-12-03T01:18:35.265Z,6.31
2018-12-03T01:19:35.254Z,6.25
2018-12-03T01:20:35.238Z,6.28
2018-12-03T01:21:35.220Z,6.30
2018-12-03T01:22:35.201Z,6.31
2018-12-03T01:23:35.193Z,6.33
2018-12-03T01:24:35.175Z,6.34
2018-12-03T01:25:35.160Z,6.38
2018-12-03T01:26:35.144Z,6.37
2018-12-03T01:27:35.136Z,6.34
2018-12-03T01:28:35.103Z,6.37
2018-12-03T01:29:35.089Z,6.40
2018-12-03T01:30:35.099Z,6.40
2018-12-03T01:31:35.064Z,6.43
2018-12-03T01:32:35.052Z,6.36
2018-12-03T01:33:35.039Z,6.40
2018-12-03T01:34:35.023Z,6.41
2018-12-03T01:35:35.006Z,6.41
2018-12-03T01:36:34.989Z,6.40
2018-12-03T01:37:34.973Z,6.38
2018-12-03T01:38:34.956Z,6.40
2018-12-03T01:39:34.948Z,6.40
2018-12-03T01:40:34.930Z,6.38
2018-12-03T01:41:34.910Z,6.43
2018-12-03T01:42:34.902Z,6.40
2018-12-03T01:43:34.878Z,6.31
2018-12-03T01:44:34.867Z,6.21
2018-12-03T01:45:34.848Z,6.14
2018-12-03T01:46:34.837Z,6.12
2018-12-03T01:47:34.831Z,6.17
2018-12-03T01:48:34.811Z,6.11
2018-12-03T01:49:34.789Z,6.14
2018-12-03T01:50:34.775Z,6.14
2018-12-03T01:51:34.759Z,6.09
2018-12-03T01:52:34.746Z,6.15
2018-12-03T01:53:34.730Z,6.14
2018-12-03T01:54:34.716Z,6.12
2018-12-03T01:55:34.700Z,6.14
2018-12-03T01:56:34.686Z,6.15
2018-12-03T01:57:34.668Z,6.17
2018-12-03T01:58:34.650Z,6.14
2018-12-03T01:59:34.633Z,6.22
2018-12-03T02:00:34.626Z,6.17
2018-12-03T02:01:34.600Z,6.06
2018-12-03T02:02:34.591Z,6.11
2018-12-03T02:03:34.576Z,6.08
2018-12-03T02:04:34.561Z,6.12
2018-12-03T02:05:34.546Z,5.99
2018-12-03T02:06:34.528Z,6.15
2018-12-03T02:07:34.510Z,6.04
2018-12-03T02:08:34.502Z,6.03
2018-12-03T02:09:34.482Z,6.08
2018-12-03T02:10:34.467Z,6.09
2018-12-03T02:11:34.449Z,6.12
2018-12-03T02:12:34.435Z,6.04
2018-12-03T02:13:34.417Z,6.01
2018-12-03T02:14:34.407Z,6.00
2018-12-03T02:15:34.387Z,6.03
2018-12-03T02:16:34.373Z,5.99
2018-12-03T02:17:34.355Z,5.97
2018-12-03T02:18:34.346Z,5.89
2018-12-03T02:19:34.330Z,5.94
2018-12-03T02:20:34.310Z,5.91
2018-12-03T02:21:34.298Z,5.99
2018-12-03T02:22:34.284Z,6.00
2018-12-03T02:23:34.264Z,5.99
2018-12-03T02:24:34.248Z,5.96
2018-12-03T02:25:34.239Z,6.08
2018-12-03T02:26:34.221Z,6.03
2018-12-03T02:27:34.205Z,6.06
2018-12-03T02:28:34.187Z,6.03
2018-12-03T02:29:34.178Z,6.09
2018-12-03T02:30:34.160Z,6.12
2018-12-03T02:31:34.144Z,6.12
2018-12-03T02:32:34.136Z,6.08
2018-12-03T02:33:34.110Z,6.11
2018-12-03T02:34:34.094Z,6.11
2018-12-03T02:35:34.085Z,6.15
2018-12-03T02:36:34.066Z,6.18
2018-12-03T02:37:34.053Z,6.11
2018-12-03T02:38:34.032Z,6.15
2018-12-03T02:39:34.013Z,6.12
2018-12-03T02:40:34.004Z,6.17
2018-12-03T02:41:33.989Z,6.09
2018-12-03T02:42:33.972Z,6.14
2018-12-03T02:43:33.960Z,6.19
2018-12-03T02:44:33.942Z,6.19
2018-12-03T02:45:33.922Z,6.17
2018-12-03T02:46:33.981Z,6.15
2018-12-03T02:47:33.898Z,6.18
2018-12-03T02:48:33.879Z,6.15
2018-12-03T02:49:33.860Z,6.17
2018-12-03T02:50:33.848Z,6.17
2018-12-03T02:51:33.831Z,6.19
2018-12-03T02:52:33.810Z,6.22
2018-12-03T02:53:33.797Z,6.22
2018-12-03T02:54:33.785Z,6.22
2018-12-03T02:55:33.768Z,6.19
2018-12-03T02:56:33.753Z,6.25
2018-12-03T02:57:33.737Z,6.21
2018-12-03T02:58:33.730Z,6.18
2018-12-03T02:59:33.708Z,6.25
2018-12-03T03:00:33.698Z,6.22
2018-12-03T03:01:33.676Z,6.18
2018-12-03T03:02:33.661Z,6.22
2018-12-03T03:03:33.647Z,6.21
2018-12-03T03:04:33.628Z,6.19
2018-12-03T03:05:33.613Z,6.15
2018-12-03T03:06:33.592Z,6.18
2018-12-03T03:07:33.584Z,6.17
2018-12-03T03:08:33.572Z,6.14
2018-12-03T03:09:33.565Z,6.21
2018-12-03T03:10:33.539Z,6.14
2018-12-03T03:11:33.529Z,6.11
2018-12-03T03:12:33.510Z,6.00
2018-12-03T03:13:33.492Z,6.12
2018-12-03T03:14:33.489Z,5.99
2018-12-03T03:15:33.459Z,6.11
2018-12-03T03:16:33.445Z,6.09
2018-12-03T03:17:33.428Z,6.04
2018-12-03T03:18:33.418Z,6.03
2018-12-03T03:19:33.398Z,6.06
2018-12-03T03:20:33.378Z,6.03
2018-12-03T03:21:33.369Z,6.03
2018-12-03T03:22:33.351Z,6.08
2018-12-03T03:23:33.341Z,6.11
2018-12-03T03:24:33.323Z,6.11
2018-12-03T03:25:33.304Z,6.19
2018-12-03T03:26:33.293Z,6.12
2018-12-03T03:27:33.270Z,6.15
2018-12-03T03:28:33.256Z,6.11
2018-12-03T03:29:33.245Z,6.18
2018-12-03T03:30:33.227Z,6.08
2018-12-03T03:31:33.218Z,6.06
2018-12-03T03:32:34.942Z,6.11
2018-12-03T03:33:33.185Z,6.08
2018-12-03T03:34:33.163Z,6.08
2018-12-03T03:35:33.157Z,6.17
2018-12-03T03:36:33.138Z,6.04
2018-12-03T03:37:33.122Z,6.12
2018-12-03T03:38:33.106Z,6.09
2018-12-03T03:39:33.091Z,6.15
2018-12-03T03:40:33.073Z,6.17
2018-12-03T03:41:33.056Z,6.25
2018-12-03T03:42:33.047Z,6.12
2018-12-03T03:43:33.027Z,6.21
2018-12-03T03:44:33.024Z,6.18
2018-12-03T03:45:32.999Z,6.21
2018-12-03T03:46:32.977Z,6.21
2018-12-03T03:47:32.970Z,6.22
2018-12-03T03:48:32.950Z,6.18
2018-12-03T03:49:32.937Z,6.25
2018-12-03T03:50:32.920Z,6.22
2018-12-03T03:51:32.914Z,6.19
2018-12-03T03:52:32.894Z,6.21
2018-12-03T03:53:32.882Z,6.18
2018-12-03T03:54:32.862Z,6.19
2018-12-03T03:55:32.843Z,6.18
2018-12-03T03:56:32.828Z,6.17
2018-12-03T03:57:32.811Z,6.19
2018-12-03T03:58:32.807Z,6.18
2018-12-03T03:59:32.783Z,6.19
2018-12-03T04:00:32.766Z,6.11
2018-12-03T04:01:32.752Z,6.12
2018-12-03T04:02:32.736Z,6.00
2018-12-03T04:03:32.734Z,6.03
2018-12-03T04:04:32.702Z,6.06
2018-12-03T04:05:32.684Z,6.01
2018-12-03T04:06:32.673Z,6.00
2018-12-03T04:07:32.660Z,5.97
2018-12-03T04:08:32.641Z,5.94
2018-12-03T04:09:32.628Z,5.91
2018-12-03T04:10:32.611Z,5.96
2018-12-03T04:11:32.596Z,5.93
2018-12-03T04:12:32.585Z,5.93
2018-12-03T04:13:32.567Z,6.00
2018-12-03T04:14:32.553Z,5.90
2018-12-03T04:15:32.563Z,5.96
2018-12-03T04:16:32.525Z,5.90
2018-12-03T04:17:32.502Z,5.94
2018-12-03T04:18:32.488Z,5.89
2018-12-03T04:19:32.472Z,5.94
2018-12-03T04:20:32.462Z,6.01
2018-12-03T04:21:32.448Z,6.00
2018-12-03T04:22:32.428Z,5.99
2018-12-03T04:23:32.416Z,5.99
2018-12-03T04:24:32.397Z,6.00
2018-12-03T04:25:32.382Z,5.96
2018-12-03T04:26:32.368Z,5.93
2018-12-03T04:27:32.353Z,5.99
2018-12-03T04:28:32.342Z,5.89
2018-12-03T04:29:32.407Z,5.93
2018-12-03T04:30:32.305Z,5.93
2018-12-03T04:31:32.286Z,5.86
2018-12-03T04:32:32.271Z,5.91
2018-12-03T04:33:32.257Z,5.94
2018-12-03T04:34:32.240Z,5.91
2018-12-03T04:35:32.246Z,5.96
2018-12-03T04:36:32.212Z,5.93
2018-12-03T04:37:32.197Z,5.94
2018-12-03T04:38:32.181Z,5.97
2018-12-03T04:39:32.163Z,6.00
2018-12-03T04:40:32.149Z,5.93
2018-12-03T04:41:32.136Z,5.97
2018-12-03T04:42:32.129Z,5.91
2018-12-03T04:43:32.101Z,5.99
2018-12-03T04:44:32.088Z,5.94
2018-12-03T04:45:32.070Z,5.97
2018-12-03T04:46:32.060Z,5.91
2018-12-03T04:47:32.037Z,6.00
2018-12-03T04:48:32.022Z,6.01
2018-12-03T04:49:32.010Z,6.04
2018-12-03T04:50:31.997Z,5.99
2018-12-03T04:51:31.978Z,6.09
2018-12-03T04:52:31.965Z,6.11
2018-12-03T04:53:31.942Z,6.08
2018-12-03T04:54:31.937Z,6.06
2018-12-03T04:55:31.916Z,6.14
2018-12-03T04:56:31.902Z,6.12
2018-12-03T04:57:31.884Z,6.14
2018-12-03T04:58:31.871Z,6.25
2018-12-03T04:59:31.854Z,6.12
2018-12-03T05:00:31.835Z,6.21
2018-12-03T05:01:31.825Z,6.18
2018-12-03T05:02:31.808Z,6.03
2018-12-03T05:03:31.794Z,6.14
2018-12-03T05:04:31.778Z,6.12
2018-12-03T05:05:31.765Z,6.06
2018-12-03T05:06:31.749Z,5.99
2018-12-03T05:07:31.732Z,6.06
2018-12-03T05:08:31.715Z,6.12
2018-12-03T05:09:31.700Z,5.96
2018-12-03T05:10:31.688Z,6.00
2018-12-03T05:11:31.669Z,6.00
2018-12-03T05:12:31.655Z,6.00
2018-12-03T05:13:31.640Z,6.01
2018-12-03T05:14:31.626Z,6.03
2018-12-03T05:15:31.614Z,6.01
2018-12-03T05:16:31.595Z,6.00
2018-12-03T05:17:31.589Z,6.00
2018-12-03T05:18:31.561Z,5.96
2018-12-03T05:19:31.549Z,5.96
2018-12-03T05:20:31.523Z,5.94
2018-12-03T05:21:31.519Z,5.90
2018-12-03T05:22:31.500Z,5.91
2018-12-03T05:23:31.488Z,5.99
2018-12-03T05:24:31.470Z,5.96
2018-12-03T05:25:31.452Z,5.86
2018-12-03T05:26:31.442Z,5.89
2018-12-03T05:27:31.424Z,5.91
2018-12-03T05:28:31.420Z,5.90
2018-12-03T05:29:31.391Z,5.90
2018-12-03T05:30:31.375Z,5.93
2018-12-03T05:31:31.363Z,5.94
2018-12-03T05:32:31.346Z,5.96
2018-12-03T05:33:31.334Z,5.99
2018-12-03T05:34:31.311Z,5.90
2018-12-03T05:35:31.313Z,5.86
2018-12-03T05:36:31.283Z,5.94
2018-12-03T05:37:31.275Z,5.96
2018-12-03T05:38:31.257Z,5.94
2018-12-03T05:39:31.231Z,5.91
2018-12-03T05:40:31.225Z,5.90
2018-12-03T05:41:31.208Z,5.94
2018-12-03T05:42:31.193Z,5.86
2018-12-03T05:43:31.167Z,5.86
2018-12-03T05:44:31.161Z,5.78
2018-12-03T05:45:31.144Z,5.78
2018-12-03T05:46:31.124Z,5.74
2018-12-03T05:47:31.110Z,5.76
2018-12-03T05:48:31.092Z,5.79
2018-12-03T05:49:31.084Z,5.78
2018-12-03T05:50:31.061Z,5.76
2018-12-03T05:51:31.049Z,5.75
2018-12-03T05:52:31.034Z,5.76
2018-12-03T05:53:31.024Z,5.75
2018-12-03T05:54:31.003Z,5.78
2018-12-03T05:55:30.987Z,5.65
2018-12-03T05:56:30.969Z,5.64
2018-12-03T05:57:30.955Z,5.67
2018-12-03T05:58:30.939Z,5.68
2018-12-03T05:59:30.925Z,5.65
2018-12-03T06:00:30.907Z,5.64
2018-12-03T06:01:30.898Z,5.68
2018-12-03T06:02:30.882Z,5.65
2018-12-03T06:03:30.862Z,5.67
2018-12-03T06:04:30.849Z,5.67
2018-12-03T06:05:31.871Z,5.74
2018-12-03T06:06:30.820Z,5.74
2018-12-03T06:07:30.812Z,5.65
2018-12-03T06:08:30.780Z,5.68
2018-12-03T06:09:30.768Z,5.76
2018-12-03T06:10:30.755Z,5.74
2018-12-03T06:11:30.735Z,5.74
2018-12-03T06:12:30.729Z,5.76
2018-12-03T06:13:30.703Z,5.75
2018-12-03T06:14:30.691Z,5.78
2018-12-03T06:15:30.673Z,5.78
2018-12-03T06:16:30.659Z,5.74
2018-12-03T06:17:30.645Z,5.82
2018-12-03T06:18:30.620Z,5.85
2018-12-03T06:19:30.612Z,5.78
2018-12-03T06:20:30.592Z,5.83
2018-12-03T06:21:30.576Z,5.79
2018-12-03T06:22:30.566Z,5.82
2018-12-03T06:23:30.576Z,5.74
2018-12-03T06:24:30.531Z,5.91
2018-12-03T06:25:30.521Z,5.79
2018-12-03T06:26:30.503Z,5.81
2018-12-03T06:27:30.491Z,5.93
2018-12-03T06:28:30.471Z,5.93
2018-12-03T06:29:30.454Z,5.90
2018-12-03T06:30:30.443Z,5.93
2018-12-03T06:31:30.425Z,5.93
2018-12-03T06:32:30.407Z,5.99
2018-12-03T06:33:30.393Z,5.91
2018-12-03T06:34:30.380Z,5.97
2018-12-03T06:35:30.360Z,5.97
2018-12-03T06:36:30.348Z,5.91
2018-12-03T06:37:30.328Z,5.89
2018-12-03T06:38:30.309Z,5.94
2018-12-03T06:39:30.298Z,5.90
2018-12-03T06:40:30.278Z,5.78
2018-12-03T06:41:30.264Z,5.90
2018-12-03T06:42:30.246Z,5.93
2018-12-03T06:43:30.231Z,5.96
2018-12-03T06:44:30.222Z,6.01
2018-12-03T06:45:30.199Z,5.96
2018-12-03T06:46:30.189Z,6.01
2018-12-03T06:47:30.173Z,5.99
2018-12-03T06:48:30.156Z,5.99
2018-12-03T06:49:30.163Z,5.90
2018-12-03T06:50:30.129Z,5.99
2018-12-03T06:51:30.113Z,5.91
2018-12-03T06:52:30.091Z,5.90
2018-12-03T06:53:30.080Z,5.96
2018-12-03T06:54:30.068Z,5.96
2018-12-03T06:55:30.048Z,5.89
2018-12-03T06:56:30.029Z,5.89
2018-12-03T06:57:30.018Z,5.96
2018-12-03T06:58:30.000Z,5.91
2018-12-03T06:59:29.991Z,5.91
2018-12-03T07:00:29.971Z,5.97
2018-12-03T07:01:29.955Z,5.96
2018-12-03T07:02:29.935Z,6.03
2018-12-03T07:03:29.919Z,5.96
2018-12-03T07:04:29.908Z,6.03
2018-12-03T07:05:29.889Z,6.06
2018-12-03T07:06:29.878Z,6.08
2018-12-03T07:07:29.858Z,6.03
2018-12-03T07:08:29.843Z,6.01
2018-12-03T07:09:29.822Z,6.11
2018-12-03T07:10:29.803Z,6.01
2018-12-03T07:11:29.799Z,6.06
2018-12-03T07:12:29.780Z,6.04
2018-12-03T07:13:29.766Z,6.11
2018-12-03T07:14:29.753Z,6.04
2018-12-03T07:15:29.732Z,6.12
2018-12-03T07:16:29.715Z,6.18
2018-12-03T07:17:29.699Z,6.18
2018-12-03T07:18:29.690Z,6.25
2018-12-03T07:19:29.674Z,6.25
2018-12-03T07:20:29.658Z,6.25
2018-12-03T07:21:29.640Z,6.18
2018-12-03T07:22:29.621Z,6.19
2018-12-03T07:23:29.609Z,6.18
2018-12-03T07:24:29.591Z,6.31
2018-12-03T07:25:29.583Z,6.31
2018-12-03T07:26:29.561Z,6.36
2018-12-03T07:27:29.546Z,6.28
2018-12-03T07:28:29.523Z,6.34
2018-12-03T07:29:29.507Z,6.40
2018-12-03T07:30:29.501Z,6.41
2018-12-03T07:31:29.487Z,6.38
2018-12-03T07:32:29.468Z,6.41
2018-12-03T07:33:29.445Z,6.48
2018-12-03T07:34:29.433Z,6.40
2018-12-03T07:35:29.422Z,6.44
2018-12-03T07:36:29.410Z,6.38
2018-12-03T07:37:29.436Z,6.43
2018-12-03T07:38:29.370Z,6.41
2018-12-03T07:39:29.361Z,6.41
2018-12-03T07:40:29.345Z,6.33
2018-12-03T07:41:29.329Z,6.34
2018-12-03T07:42:29.311Z,6.30
2018-12-03T07:43:29.297Z,6.22
2018-12-03T07:44:29.279Z,6.18
2018-12-03T07:45:29.269Z,6.27
2018-12-03T07:46:29.246Z,6.14
2018-12-03T07:47:29.238Z,6.30
2018-12-03T07:48:29.226Z,6.19
2018-12-03T07:49:29.204Z,6.19
2018-12-03T07:50:29.191Z,6.19
2018-12-03T07:51:29.171Z,6.17
2018-12-03T07:52:29.152Z,6.33
2018-12-03T07:53:29.140Z,6.33
2018-12-03T07:54:29.125Z,6.28
2018-12-03T07:55:29.110Z,6.40
2018-12-03T07:56:29.093Z,6.43
2018-12-03T07:57:29.078Z,6.40
2018-12-03T07:58:29.068Z,6.41
2018-12-03T07:59:29.052Z,6.40
2018-12-03T08:00:29.031Z,6.41
2018-12-03T08:01:29.022Z,6.41
2018-12-03T08:02:28.999Z,6.36
2018-12-03T08:03:28.987Z,6.40
2018-12-03T08:04:28.967Z,6.44
2018-12-03T08:05:28.955Z,6.41
2018-12-03T08:06:28.935Z,6.46
2018-12-03T08:07:28.926Z,6.48
2018-12-03T08:08:28.903Z,6.56
2018-12-03T08:09:28.893Z,6.55
2018-12-03T08:10:28.880Z,6.48
2018-12-03T08:11:28.870Z,6.51
2018-12-03T08:12:28.854Z,6.54
2018-12-03T08:13:28.835Z,6.58
2018-12-03T08:14:28.820Z,6.48
2018-12-03T08:15:28.801Z,6.64
2018-12-03T08:16:28.790Z,6.55
2018-12-03T08:17:28.772Z,6.64
2018-12-03T08:18:28.756Z,6.69
2018-12-03T08:19:28.735Z,6.59
2018-12-03T08:20:28.729Z,6.56
2018-12-03T08:21:28.709Z,6.66
2018-12-03T08:22:28.693Z,6.69
2018-12-03T08:23:28.681Z,6.71
2018-12-03T08:24:28.666Z,6.71
2018-12-03T08:25:28.644Z,6.67
2018-12-03T08:26:28.632Z,6.76
2018-12-03T08:27:28.622Z,6.73
2018-12-03T08:28:28.602Z,6.77
2018-12-03T08:29:28.590Z,6.79
2018-12-03T08:30:28.574Z,6.77
2018-12-03T08:31:28.579Z,6.77
2018-12-03T08:32:28.540Z,6.80
2018-12-03T08:33:28.520Z,6.85
2018-12-03T08:34:28.507Z,6.81
2018-12-03T08:35:28.495Z,6.80
2018-12-03T08:36:28.479Z,6.89
2018-12-03T08:37:28.463Z,6.89
2018-12-03T08:38:28.447Z,6.87
2018-12-03T08:39:28.452Z,6.94
2018-12-03T08:40:28.415Z,6.92
2018-12-03T08:41:28.405Z,6.99
2018-12-03T08:42:28.388Z,6.81
2018-12-03T08:43:28.374Z,6.95
2018-12-03T08:44:28.355Z,6.94
2018-12-03T08:45:28.342Z,6.92
2018-12-03T08:46:28.327Z,7.02
2018-12-03T08:47:28.314Z,7.09
2018-12-03T08:48:28.292Z,7.09
2018-12-03T08:49:28.284Z,7.20
2018-12-03T08:50:28.265Z,7.25
2018-12-03T08:51:28.253Z,7.25
2018-12-03T08:52:28.235Z,7.32
2018-12-03T08:53:28.222Z,7.32
2018-12-03T08:54:28.209Z,7.43
2018-12-03T08:55:28.191Z,7.53
2018-12-03T08:56:28.173Z,7.55
2018-12-03T08:57:28.161Z,7.63
2018-12-03T08:58:28.148Z,7.67
2018-12-03T08:59:28.131Z,7.77
2018-12-03T09:00:28.124Z,7.82
2018-12-03T09:01:28.108Z,7.77
2018-12-03T09:02:28.087Z,7.75
2018-12-03T09:03:28.072Z,7.86
2018-12-03T09:04:28.064Z,7.89
2018-12-03T09:05:28.044Z,7.85
2018-12-03T09:06:28.022Z,7.87
2018-12-03T09:07:28.033Z,7.92
2018-12-03T09:08:28.001Z,7.92
2018-12-03T09:09:27.981Z,7.98
2018-12-03T09:10:27.965Z,7.98
2018-12-03T09:11:27.952Z,7.92
2018-12-03T09:12:27.943Z,8.00
2018-12-03T09:13:27.924Z,8.05
2018-12-03T09:14:27.911Z,8.04
2018-12-03T09:15:27.892Z,8.07
2018-12-03T09:16:27.878Z,8.10
2018-12-03T09:17:27.866Z,8.11
2018-12-03T09:18:27.849Z,8.07
2018-12-03T09:19:27.833Z,8.15
2018-12-03T09:20:27.823Z,8.04
2018-12-03T09:21:27.805Z,8.02
2018-12-03T09:22:27.794Z,8.04
2018-12-03T09:23:27.773Z,8.00
2018-12-03T09:24:27.764Z,8.02
2018-12-03T09:25:27.742Z,8.02
2018-12-03T09:26:27.733Z,8.01
2018-12-03T09:27:27.720Z,7.89
2018-12-03T09:28:27.699Z,7.83
2018-12-03T09:29:27.684Z,7.85
2018-12-03T09:30:28.061Z,7.83
2018-12-03T09:31:27.661Z,7.79
2018-12-03T09:32:27.646Z,7.82
2018-12-03T09:33:27.637Z,7.63
2018-12-03T09:34:27.617Z,7.69
2018-12-03T09:35:27.595Z,7.63
2018-12-03T09:36:27.579Z,7.68
2018-12-03T09:37:27.567Z,7.79
2018-12-03T09:38:27.554Z,7.77
2018-12-03T09:39:27.536Z,7.82
2018-12-03T09:40:27.525Z,7.85
2018-12-03T09:41:27.509Z,7.83
2018-12-03T09:42:27.497Z,7.95
2018-12-03T09:43:27.478Z,7.97
2018-12-03T09:44:27.468Z,8.02
2018-12-03T09:45:27.471Z,8.15
2018-12-03T09:46:27.435Z,8.29
2018-12-03T09:47:27.419Z,8.37
2018-12-03T09:48:27.410Z,8.55
2018-12-03T09:49:27.388Z,8.70
2018-12-03T09:50:27.377Z,8.92
2018-12-03T09:51:27.361Z,8.96
2018-12-03T09:52:27.345Z,9.08
2018-12-03T09:53:27.336Z,9.29
2018-12-03T09:54:27.318Z,9.47
2018-12-03T09:55:27.310Z,9.47
2018-12-03T09:56:27.294Z,9.54
2018-12-03T09:57:27.280Z,9.54
2018-12-03T09:58:27.266Z,9.54
2018-12-03T09:59:27.247Z,9.54
2018-12-03T10:00:27.236Z,9.51
2018-12-03T10:01:27.215Z,9.42
2018-12-03T10:02:27.214Z,9.40
2018-12-03T10:03:27.197Z,9.29
2018-12-03T10:04:27.178Z,9.31
2018-12-03T10:05:27.160Z,9.20
2018-12-03T10:06:27.154Z,9.23
2018-12-03T10:07:27.149Z,9.08
2018-12-03T10:08:27.122Z,9.02
2018-12-03T10:09:27.118Z,8.98
2018-12-03T10:10:27.090Z,8.86
2018-12-03T10:11:27.080Z,8.83
2018-12-03T10:12:27.067Z,8.83
2018-12-03T10:13:27.047Z,8.77
2018-12-03T10:14:27.040Z,8.68
2018-12-03T10:15:27.022Z,8.79
2018-12-03T10:16:27.001Z,8.73
2018-12-03T10:17:26.995Z,8.70
2018-12-03T10:18:26.980Z,8.76
2018-12-03T10:19:26.966Z,8.76
2018-12-03T10:20:26.948Z,8.71
2018-12-03T10:21:26.938Z,8.71
2018-12-03T10:22:26.918Z,8.79
2018-12-03T10:23:26.915Z,8.76
2018-12-03T10:24:26.894Z,8.74
2018-12-03T10:25:26.876Z,8.86
2018-12-03T10:26:26.865Z,8.89
2018-12-03T10:27:26.851Z,8.92
2018-12-03T10:28:26.839Z,8.98
2018-12-03T10:29:26.824Z,8.98
2018-12-03T10:30:26.810Z,8.96
2018-12-03T10:31:26.793Z,9.10
2018-12-03T10:32:26.779Z,9.11
2018-12-03T10:33:26.765Z,9.10
2018-12-03T10:34:26.752Z,9.14
2018-12-03T10:35:26.738Z,9.11
2018-12-03T10:36:26.724Z,9.08
2018-12-03T10:37:26.707Z,9.02
2018-12-03T10:38:26.696Z,9.01
2018-12-03T10:39:26.692Z,9.01
2018-12-03T10:40:26.672Z,8.96
2018-12-03T10:41:26.647Z,8.96
2018-12-03T10:42:26.643Z,8.94
2018-12-03T10:43:26.625Z,8.84
2018-12-03T10:44:26.614Z,8.89
2018-12-03T10:45:26.598Z,8.96
2018-12-03T10:46:26.585Z,8.81
2018-12-03T10:47:26.571Z,8.80
2018-12-03T10:48:26.557Z,8.79
2018-12-03T10:49:26.549Z,8.80
2018-12-03T10:50:26.526Z,8.76
2018-12-03T10:51:26.510Z,8.84
2018-12-03T10:52:26.498Z,8.84
2018-12-03T10:53:26.491Z,8.76
2018-12-03T10:54:26.478Z,8.73
2018-12-03T10:55:26.462Z,8.74
2018-12-03T10:56:26.448Z,8.79
2018-12-03T10:57:26.433Z,8.79
2018-12-03T10:58:26.411Z,8.86
2018-12-03T10:59:26.403Z,8.91
2018-12-03T11:00:26.389Z,8.92
2018-12-03T11:01:26.426Z,9.04
2018-12-03T11:02:26.358Z,8.96
2018-12-03T11:03:26.344Z,9.08
2018-12-03T11:04:26.338Z,9.10
2018-12-03T11:05:26.317Z,9.08
2018-12-03T11:06:26.305Z,9.23
2018-12-03T11:07:26.286Z,9.31
2018-12-03T11:08:26.275Z,9.35
2018-12-03T11:09:26.260Z,9.46
2018-12-03T11:10:26.246Z,9.58
2018-12-03T11:11:26.236Z,9.58
2018-12-03T11:12:26.220Z,9.71
2018-12-03T11:13:26.203Z,9.71
2018-12-03T11:14:26.190Z,9.78
2018-12-03T11:15:26.181Z,9.78
2018-12-03T11:16:26.172Z,9.81
2018-12-03T11:17:26.146Z,9.84
2018-12-03T11:18:26.138Z,9.79
2018-12-03T11:19:26.123Z,9.84
2018-12-03T11:20:26.112Z,9.78
2018-12-03T11:21:26.092Z,9.72
2018-12-03T11:22:26.083Z,9.72
2018-12-03T11:23:26.061Z,9.81
2018-12-03T11:24:26.048Z,9.79
2018-12-03T11:25:26.038Z,9.78
2018-12-03T11:26:26.020Z,9.81
2018-12-03T11:27:26.012Z,9.91
2018-12-03T11:28:26.006Z,9.94
2018-12-03T11:29:25.988Z,10.04
2018-12-03T11:30:25.977Z,10.05
2018-12-03T11:31:25.955Z,10.20
2018-12-03T11:32:25.939Z,10.34
2018-12-03T11:33:25.933Z,10.48
2018-12-03T11:34:25.918Z,10.61
2018-12-03T11:35:25.925Z,10.78
2018-12-03T11:36:25.885Z,11.00
2018-12-03T11:37:25.870Z,11.21
2018-12-03T11:38:25.859Z,11.33
2018-12-03T11:39:25.847Z,11.49
2018-12-03T11:40:25.834Z,11.58
2018-12-03T11:41:25.821Z,11.55
2018-12-03T11:42:25.796Z,11.75
2018-12-03T11:43:25.790Z,11.82
2018-12-03T11:44:25.789Z,11.98
2018-12-03T11:45:25.764Z,12.12
2018-12-03T11:46:25.758Z,12.24
2018-12-03T11:47:25.740Z,12.24
2018-12-03T11:48:25.726Z,12.23
2018-12-03T11:49:25.726Z,12.52
2018-12-03T11:50:25.701Z,12.47
2018-12-03T11:51:25.689Z,12.67
2018-12-03T11:52:25.676Z,12.83
2018-12-03T11:53:25.693Z,12.87
2018-12-03T11:55:21.586Z,13.20
2018-12-03T11:56:21.476Z,13.15
2018-12-03T11:58:17.347Z,13.32
2018-12-03T11:59:17.321Z,13.36
2018-12-03T12:01:12.673Z,13.57
2018-12-03T12:02:12.644Z,13.55
2018-12-03T12:04:07.512Z,13.70
2018-12-03T12:05:07.486Z,13.73
2018-12-03T12:07:02.388Z,13.69
2018-12-03T12:08:02.319Z,13.62
2018-12-03T12:09:56.585Z,13.28
2018-12-03T12:10:56.559Z,13.20
2018-12-03T12:12:51.430Z,12.85
2018-12-03T12:13:51.399Z,12.82
2018-12-03T12:15:47.255Z,12.60
2018-12-03T12:16:47.215Z,12.65
2018-12-03T12:18:42.110Z,12.45
2018-12-03T12:19:42.063Z,12.45
2018-12-03T12:21:36.776Z,12.42
2018-12-03T12:22:36.758Z,12.64
2018-12-03T12:24:31.624Z,12.90
2018-12-03T12:25:31.597Z,12.87
2018-12-03T12:27:26.503Z,12.87
2018-12-03T12:28:26.430Z,12.87
2018-12-03T12:30:21.295Z,13.01
2018-12-03T12:31:21.270Z,13.00
2018-12-03T12:33:16.134Z,12.82
2018-12-03T12:34:16.108Z,12.82
2018-12-03T12:36:30.956Z,12.93
2018-12-03T12:37:30.923Z,12.86
2018-12-03T12:39:25.808Z,13.04
2018-12-03T12:40:25.765Z,13.01
2018-12-03T12:42:20.658Z,13.14
2018-12-03T12:43:20.602Z,13.26
2018-12-03T12:45:15.465Z,13.26
2018-12-03T12:46:15.448Z,13.28
2018-12-03T12:48:11.910Z,13.17
2018-12-03T12:49:11.140Z,13.23
2018-12-03T12:51:06.475Z,13.28
2018-12-03T12:52:06.452Z,13.29
2018-12-03T12:54:01.315Z,13.59
2018-12-03T12:55:01.290Z,13.73
2018-12-03T12:56:57.696Z,13.92
2018-12-03T12:57:57.630Z,14.00
2018-12-03T12:59:52.518Z,14.17
2018-12-03T13:00:52.475Z,14.15
2018-12-03T13:02:47.360Z,14.17
2018-12-03T13:03:47.313Z,14.12
2018-12-03T13:05:42.180Z,14.22
2018-12-03T13:06:42.149Z,14.29
2018-12-03T13:08:37.015Z,14.43
2018-12-03T13:09:36.987Z,14.40
2018-12-03T13:11:31.882Z,14.37
2018-12-03T13:12:31.824Z,14.36
2018-12-03T13:14:26.699Z,14.07
2018-12-03T13:15:26.670Z,13.95
2018-12-03T13:17:21.530Z,13.66
2018-12-03T13:18:21.503Z,13.48
2018-12-03T13:20:20.357Z,12.85
2018-12-03T13:21:20.302Z,12.68
2018-12-03T13:22:20.290Z,12.47
2018-12-03T13:23:20.281Z,12.37
2018-12-03T13:24:20.267Z,12.28
2018-12-03T13:25:20.253Z,12.24
2018-12-03T13:26:20.245Z,12.14
2018-12-03T13:27:20.229Z,12.20
2018-12-03T13:28:20.223Z,12.13
2018-12-03T13:29:20.209Z,12.09
2018-12-03T13:30:20.195Z,12.13
2018-12-03T13:31:20.190Z,12.17
2018-12-03T13:32:20.171Z,12.17
2018-12-03T13:33:20.174Z,12.14
2018-12-03T13:34:20.151Z,12.04
2018-12-03T13:35:20.135Z,11.98
2018-12-03T13:36:20.174Z,12.01
2018-12-03T13:37:20.113Z,11.94
2018-12-03T13:38:20.100Z,11.80
2018-12-03T13:39:23.169Z,11.80
2018-12-03T13:40:20.076Z,11.75
2018-12-03T13:41:20.062Z,11.73
2018-12-03T13:42:20.052Z,11.62